Time;durP1;ratioP1;P1;durP2;ratioP2;P2;SDS_P1;SDS_P2;PMS_P1;PMS_P2;Temp;Humidity;BMP_temperature;BMP_pressure;BME280_temperature;BME280_humidity;BME280_pressure;Samples;Min_cycle;Max_cycle;Signal;HPM_P1;HPM_P2
2023/04/30 00:00:23;;;;;;;;;;;;;;;17.93;56.13;102050.94;1247254;23;627;-63
2023/04/30 00:01:13;;;;;;;;;;;;;;;17.93;55.67;102051.78;1251199;23;598;-63
2023/04/30 00:02:04;;;;;;;;;;;;;;;17.94;55.70;102056.22;1251185;23;796;-63
2023/04/30 00:02:54;;;;;;;;;;;;;;;17.91;55.90;102056.47;1249521;23;708;-63
2023/04/30 00:03:45;;;;;;;;;;;;;;;17.93;56.23;102056.31;1248036;23;635;-63
2023/04/30 00:04:35;;;;;;;;;;;;;;;17.91;55.99;102056.47;1251285;23;661;-63
2023/04/30 00:05:26;;;;;;;;;;;;;;;17.91;56.19;102061.00;1250589;23;593;-63
2023/04/30 00:06:16;;;;;;;;;;;;;;;17.91;55.84;102058.31;1250722;23;744;-64
2023/04/30 00:07:07;;;;;;;;;;;;;;;17.92;56.19;102060.00;1251052;23;645;-63
2023/04/30 00:07:57;;;;;;;;;;;;;;;17.91;55.61;102059.16;1251106;23;633;-63
2023/04/30 00:08:48;;;;;;;;;;;;;;;17.91;55.83;102055.59;1247280;23;607;-63
2023/04/30 00:09:38;;;;;;;;;;;;;;;17.88;55.81;102059.41;1251187;23;654;-63
2023/04/30 00:10:29;;;;;;;;;;;;;;;17.88;55.51;102058.53;1247139;23;682;-64
2023/04/30 00:11:19;;;;;;;;;;;;;;;17.89;55.97;102061.13;1251198;23;630;-63
2023/04/30 00:12:10;;;;;;;;;;;;;;;17.89;56.53;102057.56;1250915;23;645;-64
2023/04/30 00:13:00;;;;;;;;;;;;;;;17.88;55.94;102059.41;1251212;23;668;-64
2023/04/30 00:13:50;;;;;;;;;;;;;;;17.87;56.02;102059.50;1247124;23;608;-64
2023/04/30 00:14:41;;;;;;;;;;;;;;;17.86;56.47;102055.09;1251055;23;648;-63
2023/04/30 00:15:31;;;;;;;;;;;;;;;17.86;55.86;102060.47;1251158;23;615;-63
2023/04/30 00:16:22;;;;;;;;;;;;;;;17.84;55.66;102057.03;1251052;23;626;-63
2023/04/30 00:17:12;;;;;;;;;;;;;;;17.85;56.41;102054.22;1246744;23;638;-63
2023/04/30 00:18:03;;;;;;;;;;;;;;;17.85;55.70;102067.72;1251006;23;645;-64
2023/04/30 00:18:53;;;;;;;;;;;;;;;17.84;56.22;102062.44;1251170;23;646;-64
2023/04/30 00:19:44;;;;;;;;;;;;;;;17.82;56.58;102064.38;1250987;23;614;-64
2023/04/30 00:20:34;;;;;;;;;;;;;;;17.81;55.99;102063.53;1250577;23;781;-63
2023/04/30 00:21:25;;;;;;;;;;;;;;;17.79;56.87;102062.78;1251072;23;673;-64
2023/04/30 00:22:15;;;;;;;;;;;;;;;17.77;56.24;102062.03;1251139;23;622;-63
2023/04/30 00:23:06;;;;;;;;;;;;;;;17.78;56.88;102068.28;1249518;23;633;-63
2023/04/30 00:23:59;;;;;;;;;;;;;;;17.79;55.98;102064.63;1251278;23;665;-63
2023/04/30 00:24:49;;;;;;;;;;;;;;;17.78;56.59;102062.88;1251300;23;638;-63
2023/04/30 00:25:40;;;;;;;;;;;;;;;17.75;56.90;102063.13;1251114;23;668;-63
2023/04/30 00:26:30;;;;;;;;;;;;;;;17.74;56.78;102058.69;1246654;23;603;-63
2023/04/30 00:27:20;;;;;;;;;;;;;;;17.75;55.85;102060.41;1251091;23;591;-63
2023/04/30 00:28:11;;;;;;;;;;;;;;;17.73;56.74;102057.88;1250949;23;665;-64
2023/04/30 00:29:01;;;;;;;;;;;;;;;17.72;56.44;102057.97;1251229;23;681;-63
2023/04/30 00:29:52;;;;;;;;;;;;;;;17.74;56.48;102056.00;1251002;23;630;-63
2023/04/30 00:30:42;;;;;;;;;;;;;;;17.74;56.98;102058.69;1251209;23;629;-63
2023/04/30 00:31:33;;;;;;;;;;;;;;;17.73;56.46;102059.72;1247186;23;694;-63
2023/04/30 00:32:23;;;;;;;;;;;;;;;17.71;56.94;102064.34;1251209;23;637;-63
2023/04/30 00:33:14;;;;;;;;;;;;;;;17.72;56.81;102055.28;1251074;23;685;-64
2023/04/30 00:34:04;;;;;;;;;;;;;;;17.74;56.53;102058.69;1249283;23;755;-63
2023/04/30 00:34:55;;;;;;;;;;;;;;;17.72;56.66;102064.25;1250541;23;644;-63
2023/04/30 00:35:45;;;;;;;;;;;;;;;17.71;56.58;102062.50;1246778;23;662;-63
2023/04/30 00:36:36;;;;;;;;;;;;;;;17.68;57.23;102063.59;1247775;23;678;-63
2023/04/30 00:37:26;;;;;;;;;;;;;;;17.68;57.14;102066.28;1247433;23;661;-64
2023/04/30 00:38:17;;;;;;;;;;;;;;;17.69;56.61;102069.84;1249911;23;652;-64
2023/04/30 00:39:07;;;;;;;;;;;;;;;17.65;57.37;102062.97;1249086;23;617;-64
2023/04/30 00:39:58;;;;;;;;;;;;;;;17.66;56.84;102065.56;1249443;23;688;-64
2023/04/30 00:40:48;;;;;;;;;;;;;;;17.65;57.05;102068.34;1246908;23;595;-64
2023/04/30 00:41:38;;;;;;;;;;;;;;;17.64;57.22;102067.50;1251127;23;642;-64
2023/04/30 00:42:29;;;;;;;;;;;;;;;17.66;56.88;102065.56;1251012;23;657;-64
2023/04/30 00:43:19;;;;;;;;;;;;;;;17.66;57.33;102068.25;1250990;23;992;-64
2023/04/30 00:44:10;;;;;;;;;;;;;;;17.65;57.19;102069.22;1250666;23;1890;-64
2023/04/30 00:45:00;;;;;;;;;;;;;;;17.64;56.33;102077.41;1251045;23;646;-64
2023/04/30 00:45:51;;;;;;;;;;;;;;;17.62;56.54;102080.19;1247143;23;654;-64
2023/04/30 00:46:41;;;;;;;;;;;;;;;17.64;57.23;102074.72;1251282;23;637;-63
2023/04/30 00:47:31;;;;;;;;;;;;;;;17.64;56.73;102078.28;1251105;23;642;-63
2023/04/30 00:48:22;;;;;;;;;;;;;;;17.65;56.74;102079.16;1247172;23;912;-63
2023/04/30 00:49:12;;;;;;;;;;;;;;;17.65;56.79;102081.84;1251176;23;598;-64
2023/04/30 00:50:03;;;;;;;;;;;;;;;17.62;57.17;102084.72;1251217;23;688;-64
2023/04/30 00:50:53;;;;;;;;;;;;;;;17.60;57.50;102075.88;1251083;23;645;-64
2023/04/30 00:51:44;;;;;;;;;;;;;;;17.60;57.38;102082.13;1251134;23;649;-64
2023/04/30 00:52:34;;;;;;;;;;;;;;;17.60;56.83;102076.75;1251137;23;590;-64
2023/04/30 00:53:25;;;;;;;;;;;;;;;17.57;57.49;102079.66;1250986;23;637;-64
2023/04/30 00:54:15;;;;;;;;;;;;;;;17.55;57.06;102073.56;1251120;23;661;-64
2023/04/30 00:55:06;;;;;;;;;;;;;;;17.50;57.34;102074.88;1246770;23;599;-63
2023/04/30 00:55:56;;;;;;;;;;;;;;;17.51;57.30;102071.19;1250900;23;669;-64
2023/04/30 00:56:46;;;;;;;;;;;;;;;17.47;58.05;102085.88;1246905;23;611;-63
2023/04/30 00:57:37;;;;;;;;;;;;;;;17.46;57.92;102076.06;1251010;23;641;-64
2023/04/30 00:58:27;;;;;;;;;;;;;;;17.47;57.54;102075.09;1251207;23;650;-63
2023/04/30 00:59:18;;;;;;;;;;;;;;;17.49;57.14;102076.69;1250970;23;684;-63
2023/04/30 01:00:10;;;;;;;;;;;;;;;17.50;58.00;102077.56;1251121;23;641;-63
2023/04/30 01:01:00;;;;;;;;;;;;;;;17.48;58.18;102074.13;1251164;23;642;-63
2023/04/30 01:01:50;;;;;;;;;;;;;;;17.50;57.88;102073.03;1251027;23;602;-63
2023/04/30 01:02:41;;;;;;;;;;;;;;;17.43;58.00;102077.16;1247276;23;646;-63
2023/04/30 01:03:31;;;;;;;;;;;;;;;17.43;58.17;102073.59;1251126;23;655;-64
2023/04/30 01:04:22;;;;;;;;;;;;;;;17.41;58.01;102081.78;1250727;23;1927;-63
2023/04/30 01:05:12;;;;;;;;;;;;;;;17.44;57.76;102073.47;1251162;23;722;-64
2023/04/30 01:06:03;;;;;;;;;;;;;;;17.46;57.43;102082.31;1251068;23;654;-64
2023/04/30 01:06:53;;;;;;;;;;;;;;;17.44;57.83;102076.19;1251343;23;618;-63
2023/04/30 01:07:45;;;;;;;;;;;;;;;17.46;57.85;102076.94;1251199;23;606;-64
2023/04/30 01:08:35;;;;;;;;;;;;;;;17.45;57.69;102074.34;1249433;23;630;-64
2023/04/30 01:09:26;;;;;;;;;;;;;;;17.45;57.48;102079.72;1250969;23;605;-63
2023/04/30 01:10:16;;;;;;;;;;;;;;;17.45;57.43;102085.13;1250695;23;614;-63
2023/04/30 01:11:06;;;;;;;;;;;;;;;17.44;58.09;102076.19;1251095;23;653;-63
2023/04/30 01:11:57;;;;;;;;;;;;;;;17.43;58.06;102087.06;1251052;23;673;-66
2023/04/30 01:12:47;;;;;;;;;;;;;;;17.41;58.05;102081.78;1251097;23;599;-64
2023/04/30 01:13:38;;;;;;;;;;;;;;;17.41;57.83;102076.41;1250985;23;669;-64
2023/04/30 01:14:28;;;;;;;;;;;;;;;17.39;57.77;102078.34;1251006;23;605;-64
2023/04/30 01:15:19;;;;;;;;;;;;;;;17.38;58.19;102076.63;1247163;23;764;-63
2023/04/30 01:16:09;;;;;;;;;;;;;;;17.43;57.47;102079.84;1251063;23;606;-63
2023/04/30 01:17:00;;;;;;;;;;;;;;;17.39;58.01;102078.34;1250981;23;637;-64
2023/04/30 01:17:50;;;;;;;;;;;;;;;17.40;57.77;102080.06;1251086;23;614;-63
2023/04/30 01:18:41;;;;;;;;;;;;;;;17.39;57.61;102078.34;1250500;23;656;-64
2023/04/30 01:19:31;;;;;;;;;;;;;;;17.36;58.57;102078.59;1246630;23;623;-63
2023/04/30 01:20:21;;;;;;;;;;;;;;;17.34;58.07;102077.84;1251008;23;598;-63
2023/04/30 01:21:12;;;;;;;;;;;;;;;17.34;57.67;102077.84;1250907;23;630;-64
2023/04/30 01:22:02;;;;;;;;;;;;;;;17.36;58.27;102081.28;1251284;23;741;-63
2023/04/30 01:22:53;;;;;;;;;;;;;;;17.36;57.74;102078.59;1250958;23;664;-63
2023/04/30 01:23:43;;;;;;;;;;;;;;;17.36;57.80;102083.97;1249316;23;646;-63
2023/04/30 01:24:34;;;;;;;;;;;;;;;17.35;57.85;102077.72;1250910;23;1925;-63
2023/04/30 01:25:24;;;;;;;;;;;;;;;17.35;57.64;102079.56;1250849;23;638;-63
2023/04/30 01:26:14;;;;;;;;;;;;;;;17.31;57.90;102083.47;1246978;23;683;-63
2023/04/30 01:27:05;;;;;;;;;;;;;;;17.31;58.53;102088.84;1251005;23;661;-64
2023/04/30 01:27:56;;;;;;;;;;;;;;;17.29;58.44;102085.41;1251050;23;618;-63
2023/04/30 01:28:46;;;;;;;;;;;;;;;17.28;58.48;102081.84;1251064;23;641;-63
2023/04/30 01:29:36;;;;;;;;;;;;;;;17.30;57.92;102079.03;1251100;23;661;-64
2023/04/30 01:30:27;;;;;;;;;;;;;;;17.30;58.10;102076.34;1250900;23;665;-63
2023/04/30 01:31:17;;;;;;;;;;;;;;;17.27;58.21;102080.13;1251194;23;649;-63
2023/04/30 01:32:08;;;;;;;;;;;;;;;17.28;58.55;102076.44;1250902;23;720;-63
2023/04/30 01:32:58;;;;;;;;;;;;;;;17.28;58.22;102078.28;1250727;23;681;-63
2023/04/30 01:33:49;;;;;;;;;;;;;;;17.27;58.54;102085.50;1251119;23;655;-63
2023/04/30 01:34:39;;;;;;;;;;;;;;;17.24;57.93;102079.47;1247311;23;615;-63
2023/04/30 01:35:30;;;;;;;;;;;;;;;17.25;57.82;102075.81;1247410;23;674;-63
2023/04/30 01:36:20;;;;;;;;;;;;;;;17.27;58.71;102074.72;1249455;23;595;-63
2023/04/30 01:37:11;;;;;;;;;;;;;;;17.24;58.63;102079.47;1247013;23;681;-63
2023/04/30 01:38:02;;;;;;;;;;;;;;;17.23;58.37;102075.91;1251077;23;709;-63
2023/04/30 01:38:52;;;;;;;;;;;;;;;17.23;58.61;102086.69;1251204;23;614;-63
2023/04/30 01:39:43;;;;;;;;;;;;;;;17.23;58.23;102081.31;1251006;23;602;-64
2023/04/30 01:40:33;;;;;;;;;;;;;;;17.24;58.36;102084.88;1250833;23;654;-63
2023/04/30 01:41:23;;;;;;;;;;;;;;;17.23;58.03;102081.31;1250980;23;617;-63
2023/04/30 01:42:15;;;;;;;;;;;;;;;17.25;58.44;102078.50;1251007;23;622;-63
2023/04/30 01:43:05;;;;;;;;;;;;;;;17.27;58.48;102084.66;1247200;23;646;-63
2023/04/30 01:43:56;;;;;;;;;;;;;;;17.24;58.59;102080.34;1250913;23;597;-63
2023/04/30 01:44:46;;;;;;;;;;;;;;;17.27;58.39;102079.25;1250879;23;692;-63
2023/04/30 01:45:36;;;;;;;;;;;;;;;17.23;58.59;102085.84;1250938;23;665;-63
2023/04/30 01:46:27;;;;;;;;;;;;;;;17.22;58.85;102084.13;1250885;23;622;-63
2023/04/30 01:47:17;;;;;;;;;;;;;;;17.19;58.74;102085.22;1250951;23;610;-63
2023/04/30 01:48:08;;;;;;;;;;;;;;;17.18;58.43;102079.94;1250727;23;766;-63
2023/04/30 01:48:58;;;;;;;;;;;;;;;17.17;58.79;102083.63;1246568;23;808;-63
2023/04/30 01:49:49;;;;;;;;;;;;;;;17.16;58.76;102085.44;1247047;23;895;-63
2023/04/30 01:50:39;;;;;;;;;;;;;;;17.20;58.91;102086.06;1249639;23;670;-63
2023/04/30 01:51:30;;;;;;;;;;;;;;;17.18;58.93;102090.72;1247493;23;658;-63
2023/04/30 01:52:21;;;;;;;;;;;;;;;17.15;58.50;102085.56;1250942;23;622;-62
2023/04/30 01:53:11;;;;;;;;;;;;;;;17.13;58.93;102082.97;1250561;23;622;-63
2023/04/30 01:54:01;;;;;;;;;;;;;;;17.14;58.79;102094.59;1250822;23;630;-62
2023/04/30 01:54:52;;;;;;;;;;;;;;;17.16;58.38;102090.84;1250751;23;653;-62
2023/04/30 01:55:42;;;;;;;;;;;;;;;17.16;58.42;102090.84;1251079;23;606;-63
2023/04/30 01:56:33;;;;;;;;;;;;;;;17.11;58.59;102087.59;1247208;23;631;-62
2023/04/30 01:57:23;;;;;;;;;;;;;;;17.12;58.68;102085.78;1246980;23;682;-63
2023/04/30 01:58:14;;;;;;;;;;;;;;;17.13;59.23;102088.34;1247554;23;611;-63
2023/04/30 01:59:04;;;;;;;;;;;;;;;17.12;59.01;102088.47;1250687;23;638;-63
2023/04/30 01:59:54;;;;;;;;;;;;;;;17.13;59.04;102095.56;1246659;23;623;-63
2023/04/30 02:00:45;;;;;;;;;;;;;;;17.08;58.35;102087.81;1246789;23;638;-63
2023/04/30 02:01:35;;;;;;;;;;;;;;;17.10;58.45;102083.19;1250942;23;650;-63
2023/04/30 02:02:26;;;;;;;;;;;;;;;17.08;58.90;102084.25;1250677;23;637;-63
2023/04/30 02:03:16;;;;;;;;;;;;;;;17.06;59.33;102081.69;1246743;23;608;-63
2023/04/30 02:04:07;;;;;;;;;;;;;;;17.06;58.78;102080.81;1250630;23;614;-63
2023/04/30 02:04:57;;;;;;;;;;;;;;;17.07;58.56;102082.53;1250595;23;677;-63
2023/04/30 02:05:48;;;;;;;;;;;;;;;17.09;58.71;102083.28;1250762;23;649;-63
2023/04/30 02:06:40;;;;;;;;;;;;;;;17.02;58.68;102086.41;1249937;23;960;-63
2023/04/30 02:07:30;;;;;;;;;;;;;;;17.02;58.56;102086.41;1246922;23;581;-63
2023/04/30 02:08:20;;;;;;;;;;;;;;;17.02;58.86;102086.41;1251008;23;650;-63
2023/04/30 02:09:11;;;;;;;;;;;;;;;17.02;58.94;102084.72;1250847;23;661;-63
2023/04/30 02:10:02;;;;;;;;;;;;;;;17.05;59.29;102084.47;1250929;23;614;-63
2023/04/30 02:10:52;;;;;;;;;;;;;;;17.04;59.31;102086.31;1249926;23;653;-63
2023/04/30 02:11:43;;;;;;;;;;;;;;;17.06;58.97;102087.06;1250821;23;638;-63
2023/04/30 02:12:33;;;;;;;;;;;;;;;17.04;59.29;102088.16;1250451;23;626;-63
2023/04/30 02:13:23;;;;;;;;;;;;;;;17.04;58.76;102094.41;1250646;23;650;-63
2023/04/30 02:14:14;;;;;;;;;;;;;;;17.04;59.39;102090.84;1246803;23;646;-63
2023/04/30 02:15:05;;;;;;;;;;;;;;;17.02;58.89;102096.34;1250729;23;610;-63
2023/04/30 02:15:55;;;;;;;;;;;;;;;16.99;58.71;102097.44;1250788;23;626;-63
2023/04/30 02:16:45;;;;;;;;;;;;;;;16.97;59.34;102085.91;1250281;23;641;-63
2023/04/30 02:17:36;;;;;;;;;;;;;;;16.96;59.56;102089.56;1250684;23;621;-63
2023/04/30 02:18:26;;;;;;;;;;;;;;;16.99;59.14;102091.19;1250794;23;672;-63
2023/04/30 02:19:17;;;;;;;;;;;;;;;16.97;59.06;102090.44;1250605;23;602;-63
2023/04/30 02:20:07;;;;;;;;;;;;;;;16.97;58.88;102088.59;1246955;23;654;-63
2023/04/30 02:20:58;;;;;;;;;;;;;;;16.97;58.92;102091.31;1250640;23;606;-63
2023/04/30 02:21:48;;;;;;;;;;;;;;;16.99;59.24;102080.41;1250606;23;635;-63
2023/04/30 02:22:38;;;;;;;;;;;;;;;17.00;59.39;102084.84;1251203;23;689;-63
2023/04/30 02:23:29;;;;;;;;;;;;;;;17.00;58.81;102085.69;1250924;23;642;-63
2023/04/30 02:24:19;;;;;;;;;;;;;;;16.99;59.18;102092.06;1251083;23;1885;-63
2023/04/30 02:25:11;;;;;;;;;;;;;;;16.98;58.65;102084.94;1250955;23;602;-63
2023/04/30 02:26:02;;;;;;;;;;;;;;;16.94;59.10;102087.97;1251271;23;614;-63
2023/04/30 02:26:52;;;;;;;;;;;;;;;16.94;59.26;102090.66;1247441;23;631;-63
2023/04/30 02:27:42;;;;;;;;;;;;;;;16.97;59.29;102087.75;1251288;23;630;-63
2023/04/30 02:28:33;;;;;;;;;;;;;;;16.93;59.54;102081.72;1250932;23;610;-63
2023/04/30 02:29:23;;;;;;;;;;;;;;;16.95;58.86;102087.84;1251068;23;661;-63
2023/04/30 02:30:14;;;;;;;;;;;;;;;16.96;59.45;102092.28;1251264;23;692;-63
2023/04/30 02:31:04;;;;;;;;;;;;;;;16.94;59.39;102086.13;1250966;23;610;-64
2023/04/30 02:31:55;;;;;;;;;;;;;;;16.96;58.99;102088.72;1251159;23;695;-63
2023/04/30 02:32:45;;;;;;;;;;;;;;;16.93;59.61;102088.94;1251243;23;598;-63
2023/04/30 02:33:36;;;;;;;;;;;;;;;16.92;59.47;102082.69;1246874;23;661;-63
2023/04/30 02:34:26;;;;;;;;;;;;;;;16.93;59.40;102081.72;1247341;23;622;-63
2023/04/30 02:35:17;;;;;;;;;;;;;;;16.94;58.99;102086.13;1250869;23;657;-63
2023/04/30 02:36:07;;;;;;;;;;;;;;;16.94;59.15;102088.81;1250991;23;649;-63
2023/04/30 02:36:57;;;;;;;;;;;;;;;16.95;58.97;102077.09;1248568;23;630;-63
2023/04/30 02:37:48;;;;;;;;;;;;;;;16.91;59.16;102078.28;1251077;23;673;-63
2023/04/30 02:38:38;;;;;;;;;;;;;;;16.92;59.30;102079.13;1251322;23;716;-63
2023/04/30 02:39:29;;;;;;;;;;;;;;;16.89;59.61;102080.22;1250916;23;618;-63
2023/04/30 02:40:19;;;;;;;;;;;;;;;16.90;59.49;102081.06;1250904;23;617;-63
2023/04/30 02:41:09;;;;;;;;;;;;;;;16.89;59.07;102079.34;1251128;23;629;-63
2023/04/30 02:42:00;;;;;;;;;;;;;;;16.88;58.91;102083.88;1250952;23;649;-63
2023/04/30 02:42:52;;;;;;;;;;;;;;;16.89;59.68;102080.22;1251283;23;660;-63
2023/04/30 02:43:43;;;;;;;;;;;;;;;16.92;59.32;102080.00;1251007;23;668;-63
2023/04/30 02:44:33;;;;;;;;;;;;;;;16.89;59.42;102082.03;1246614;23;1964;-63
2023/04/30 02:45:24;;;;;;;;;;;;;;;16.88;59.69;102081.19;1250459;23;618;-63
2023/04/30 02:46:14;;;;;;;;;;;;;;;16.88;59.44;102072.25;1247160;23;627;-63
2023/04/30 02:47:05;;;;;;;;;;;;;;;16.88;59.42;102073.09;1251164;23;625;-64
2023/04/30 02:47:55;;;;;;;;;;;;;;;16.89;59.47;102076.66;1250911;23;642;-63
2023/04/30 02:48:45;;;;;;;;;;;;;;;16.89;59.09;102074.81;1251283;23;630;-63
2023/04/30 02:49:36;;;;;;;;;;;;;;;16.90;59.57;102081.06;1250479;23;696;-63
2023/04/30 02:50:26;;;;;;;;;;;;;;;16.89;59.32;102074.81;1251083;23;653;-63
2023/04/30 02:51:17;;;;;;;;;;;;;;;16.87;59.49;102082.16;1246512;23;647;-63
2023/04/30 02:52:08;;;;;;;;;;;;;;;16.83;59.55;102080.66;1250950;23;621;-63
2023/04/30 02:52:59;;;;;;;;;;;;;;;16.80;59.47;102080.88;1250873;23;601;-63
2023/04/30 02:53:50;;;;;;;;;;;;;;;16.80;59.67;102075.50;1247373;23;639;-62
2023/04/30 02:54:41;;;;;;;;;;;;;;;16.80;59.46;102078.19;1251277;23;645;-63
2023/04/30 02:55:32;;;;;;;;;;;;;;;16.79;59.96;102073.78;1250840;23;598;-63
2023/04/30 02:56:22;;;;;;;;;;;;;;;16.82;59.54;102080.78;1250962;23;633;-63
2023/04/30 02:57:13;;;;;;;;;;;;;;;16.84;59.72;102081.53;1246763;23;670;-63
2023/04/30 02:58:03;;;;;;;;;;;;;;;16.82;59.27;102075.38;1251082;23;799;-63
2023/04/30 02:58:53;;;;;;;;;;;;;;;16.81;59.43;102077.22;1251169;23;645;-64
2023/04/30 02:59:44;;;;;;;;;;;;;;;16.82;59.19;102068.16;1250945;23;699;-63
2023/04/30 03:00:35;;;;;;;;;;;;;;;16.81;59.34;102073.66;1251171;23;656;-63
2023/04/30 03:01:25;;;;;;;;;;;;;;;16.81;59.35;102070.97;1251158;23;613;-63
2023/04/30 03:02:19;;;;;;;;;;;;;;;16.79;59.69;102073.78;1250939;23;657;-63
2023/04/30 03:03:10;;;;;;;;;;;;;;;16.80;59.56;102069.25;1251029;23;862;-63
2023/04/30 03:04:02;;;;;;;;;;;;;;;16.77;59.24;102067.63;1251132;23;638;-63
2023/04/30 03:04:53;;;;;;;;;;;;;;;16.73;59.66;102067.97;1251123;23;610;-63
2023/04/30 03:05:43;;;;;;;;;;;;;;;16.71;59.76;102076.13;1247341;23;722;-62
2023/04/30 03:06:33;;;;;;;;;;;;;;;16.72;59.66;102067.09;1251500;23;673;-62
2023/04/30 03:07:24;;;;;;;;;;;;;;;16.73;59.62;102066.13;1251019;23;708;-63
2023/04/30 03:08:14;;;;;;;;;;;;;;;16.69;59.87;102075.38;1247500;23;665;-63
2023/04/30 03:09:05;;;;;;;;;;;;;;;16.73;59.78;102076.91;1247603;23;638;-63
2023/04/30 03:09:56;;;;;;;;;;;;;;;16.72;59.30;102066.22;1247894;23;631;-63
2023/04/30 03:10:46;;;;;;;;;;;;;;;16.75;59.62;102072.25;1251229;23;613;-63
2023/04/30 03:11:36;;;;;;;;;;;;;;;16.74;59.63;102075.91;1251235;23;656;-63
2023/04/30 03:12:27;;;;;;;;;;;;;;;16.74;59.89;102070.53;1250840;23;666;-63
2023/04/30 03:13:17;;;;;;;;;;;;;;;16.72;59.28;102069.78;1251136;23;645;-63
2023/04/30 03:14:08;;;;;;;;;;;;;;;16.72;59.60;102072.47;1250964;23;707;-63
2023/04/30 03:14:58;;;;;;;;;;;;;;;16.72;59.45;102075.16;1251152;23;625;-63
2023/04/30 03:15:49;;;;;;;;;;;;;;;16.73;59.53;102071.50;1247079;23;658;-63
2023/04/30 03:16:40;;;;;;;;;;;;;;;16.72;59.92;102077.00;1249569;23;744;-63
2023/04/30 03:17:30;;;;;;;;;;;;;;;16.72;59.65;102066.22;1250794;23;665;-64
2023/04/30 03:18:20;;;;;;;;;;;;;;;16.72;59.67;102066.22;1251158;23;621;-63
2023/04/30 03:19:11;;;;;;;;;;;;;;;16.73;59.64;102067.97;1250978;23;696;-63
2023/04/30 03:20:01;;;;;;;;;;;;;;;16.71;59.77;102072.59;1246794;23;603;-63
2023/04/30 03:20:52;;;;;;;;;;;;;;;16.70;59.59;102066.34;1246906;23;671;-63
2023/04/30 03:21:42;;;;;;;;;;;;;;;16.71;59.90;102065.38;1250929;23;617;-63
2023/04/30 03:22:33;;;;;;;;;;;;;;;16.71;59.62;102065.38;1251163;23;629;-63
2023/04/30 03:23:23;;;;;;;;;;;;;;;16.73;59.35;102063.44;1250910;23;662;-63
2023/04/30 03:24:13;;;;;;;;;;;;;;;16.75;59.38;102064.19;1247035;23;1890;-63
2023/04/30 03:25:04;;;;;;;;;;;;;;;16.73;60.10;102058.06;1247214;23;619;-63
2023/04/30 03:25:54;;;;;;;;;;;;;;;16.70;59.91;102058.25;1249464;23;623;-63
2023/04/30 03:26:45;;;;;;;;;;;;;;;16.73;59.75;102065.25;1246982;23;626;-63
2023/04/30 03:27:35;;;;;;;;;;;;;;;16.72;59.63;102067.09;1250858;23;614;-64
2023/04/30 03:28:26;;;;;;;;;;;;;;;16.69;59.36;102061.91;1251091;23;669;-64
2023/04/30 03:29:16;;;;;;;;;;;;;;;16.70;59.79;102069.03;1250330;23;653;-63
2023/04/30 03:30:06;;;;;;;;;;;;;;;16.70;59.44;102069.03;1251201;23;637;-63
2023/04/30 03:30:58;;;;;;;;;;;;;;;16.69;59.62;102061.91;1250943;23;606;-63
2023/04/30 03:31:48;;;;;;;;;;;;;;;16.67;60.13;102067.41;1249359;23;661;-63
2023/04/30 03:32:39;;;;;;;;;;;;;;;16.67;59.44;102067.41;1251136;23;669;-63
2023/04/30 03:33:29;;;;;;;;;;;;;;;16.68;59.38;102065.59;1250732;23;610;-63
2023/04/30 03:34:20;;;;;;;;;;;;;;;16.65;59.92;102069.38;1251199;23;501;-63
2023/04/30 03:35:10;;;;;;;;;;;;;;;16.63;59.83;102062.38;1250791;23;666;-63
2023/04/30 03:36:00;;;;;;;;;;;;;;;16.62;59.87;102055.25;1251202;23;629;-63
2023/04/30 03:36:51;;;;;;;;;;;;;;;16.60;60.01;102055.34;1250914;23;688;-63
2023/04/30 03:37:41;;;;;;;;;;;;;;;16.62;59.72;102063.31;1246762;23;667;-63
2023/04/30 03:38:32;;;;;;;;;;;;;;;16.62;59.92;102058.78;1250920;23;618;-63
2023/04/30 03:39:22;;;;;;;;;;;;;;;16.64;59.74;102058.72;1247734;23;718;-63
2023/04/30 03:40:13;;;;;;;;;;;;;;;16.64;59.85;102064.09;1247102;23;614;-63
2023/04/30 03:41:03;;;;;;;;;;;;;;;16.62;59.59;102060.63;1248117;23;639;-63
2023/04/30 03:41:56;;;;;;;;;;;;;;;16.61;59.60;102058.91;1248461;23;630;-63
2023/04/30 03:42:46;;;;;;;;;;;;;;;16.61;59.78;102062.44;1247133;23;651;-63
2023/04/30 03:43:37;;;;;;;;;;;;;;;16.61;60.27;102062.44;1250760;23;629;-63
2023/04/30 03:44:27;;;;;;;;;;;;;;;16.61;59.73;102053.50;1247281;23;1909;-63
2023/04/30 03:45:17;;;;;;;;;;;;;;;16.60;59.99;102059.88;1247152;23;658;-63
2023/04/30 03:46:08;;;;;;;;;;;;;;;16.63;59.63;102051.63;1249686;23;630;-63
2023/04/30 03:46:58;;;;;;;;;;;;;;;16.62;59.86;102057.94;1250904;23;616;-63
2023/04/30 03:47:49;;;;;;;;;;;;;;;16.60;59.87;102051.78;1250969;23;633;-63
2023/04/30 03:48:39;;;;;;;;;;;;;;;16.61;59.58;102054.38;1247177;23;611;-63
2023/04/30 03:49:30;;;;;;;;;;;;;;;16.60;59.85;102049.09;1247205;23;626;-63
2023/04/30 03:50:20;;;;;;;;;;;;;;;16.60;59.75;102057.19;1249960;23;690;-63
2023/04/30 03:51:10;;;;;;;;;;;;;;;16.58;60.36;102053.72;1247792;23;639;-63
2023/04/30 03:52:01;;;;;;;;;;;;;;;16.59;59.71;102053.63;1250868;23;680;-63
2023/04/30 03:52:51;;;;;;;;;;;;;;;16.61;60.08;102058.91;1249353;23;707;-63
2023/04/30 03:53:42;;;;;;;;;;;;;;;16.59;59.95;102050.94;1251049;23;633;-63
2023/04/30 03:54:32;;;;;;;;;;;;;;;16.57;60.07;102054.69;1250778;23;625;-63
2023/04/30 03:55:23;;;;;;;;;;;;;;;16.56;60.05;102052.97;1251279;23;657;-62
2023/04/30 03:56:13;;;;;;;;;;;;;;;16.56;59.77;102044.91;1250617;23;873;-63
2023/04/30 03:57:04;;;;;;;;;;;;;;;16.56;59.82;102045.75;1247109;23;611;-62
2023/04/30 03:57:55;;;;;;;;;;;;;;;16.55;59.71;102045.88;1246768;23;697;-63
2023/04/30 03:58:45;;;;;;;;;;;;;;;16.54;59.86;102049.53;1248039;23;650;-63
2023/04/30 03:59:35;;;;;;;;;;;;;;;16.50;60.20;102051.56;1251348;23;720;-63
2023/04/30 04:00:26;;;;;;;;;;;;;;;16.52;60.50;102048.78;1251141;23;657;-63
2023/04/30 04:01:16;;;;;;;;;;;;;;;16.52;60.33;102046.06;1250690;23;674;-63
2023/04/30 04:02:07;;;;;;;;;;;;;;;16.56;59.83;102051.16;1250888;23;629;-63
2023/04/30 04:02:58;;;;;;;;;;;;;;;16.55;59.70;102053.94;1249227;23;696;-63
2023/04/30 04:03:48;;;;;;;;;;;;;;;16.57;59.86;102052.88;1250709;23;664;-63
2023/04/30 04:04:39;;;;;;;;;;;;;;;16.61;59.64;102054.38;1250884;23;2305;-63
2023/04/30 04:05:29;;;;;;;;;;;;;;;16.62;59.86;102052.53;1250801;23;641;-63
2023/04/30 04:06:20;;;;;;;;;;;;;;;16.61;59.74;102050.81;1246657;23;659;-63
2023/04/30 04:07:10;;;;;;;;;;;;;;;16.60;60.34;102052.66;1250939;23;657;-63
2023/04/30 04:08:00;;;;;;;;;;;;;;;16.60;60.02;102051.78;1251149;23;650;-63
2023/04/30 04:08:51;;;;;;;;;;;;;;;16.56;59.85;102045.75;1251055;23;634;-63
2023/04/30 04:09:41;;;;;;;;;;;;;;;16.54;59.46;102053.06;1251233;23;658;-63
2023/04/30 04:10:32;;;;;;;;;;;;;;;16.59;59.66;102047.38;1250841;23;692;-63
2023/04/30 04:11:22;;;;;;;;;;;;;;;16.58;59.74;102048.34;1250656;23;611;-63
2023/04/30 04:12:13;;;;;;;;;;;;;;;16.59;59.72;102044.69;1246998;23;630;-63
2023/04/30 04:13:03;;;;;;;;;;;;;;;16.54;59.58;102042.31;1249513;23;771;-63
2023/04/30 04:13:54;;;;;;;;;;;;;;;16.52;60.04;102040.69;1251367;23;657;-63
2023/04/30 04:14:44;;;;;;;;;;;;;;;16.51;59.91;102041.66;1246918;23;630;-63
2023/04/30 04:15:35;;;;;;;;;;;;;;;16.49;60.07;102044.47;1246836;23;686;-63
2023/04/30 04:16:26;;;;;;;;;;;;;;;16.50;59.94;102039.94;1250949;23;598;-63
2023/04/30 04:17:16;;;;;;;;;;;;;;;16.47;60.32;102040.19;1250804;23;755;-63
2023/04/30 04:18:07;;;;;;;;;;;;;;;16.51;60.14;102047.03;1250953;23;605;-63
2023/04/30 04:18:57;;;;;;;;;;;;;;;16.53;60.13;102045.09;1251104;23;786;-63
2023/04/30 04:19:48;;;;;;;;;;;;;;;16.51;60.23;102041.66;1250764;23;637;-63
2023/04/30 04:20:38;;;;;;;;;;;;;;;16.47;60.12;102040.19;1250844;23;624;-63
2023/04/30 04:21:30;;;;;;;;;;;;;;;16.44;60.47;102040.41;1251222;23;657;-63
2023/04/30 04:22:20;;;;;;;;;;;;;;;16.46;60.05;102039.31;1247148;23;670;-63
2023/04/30 04:23:11;;;;;;;;;;;;;;;16.47;59.67;102042.88;1251142;23;648;-63
2023/04/30 04:24:07;;;;;;;;;;;;;;;16.48;60.12;102039.22;1250613;23;633;-63
2023/04/30 04:24:57;;;;;;;;;;;;;;;16.45;60.18;102039.44;1250815;23;665;-63
2023/04/30 04:25:51;;;;;;;;;;;;;;;16.45;60.04;102042.13;1246580;23;601;-62
2023/04/30 04:26:41;;;;;;;;;;;;;;;16.44;60.49;102035.88;1251034;23;657;-63